Time;durP1;ratioP1;P1;durP2;ratioP2;P2;SDS_P1;SDS_P2;PMS_P1;PMS_P2;Temp;Humidity;BMP_temperature;BMP_pressure;BME280_temperature;BME280_humidity;BME280_pressure;Samples;Min_cycle;Max_cycle;Signal;HPM_P1;HPM_P2
2022/11/21 00:00:47;;;;;;;1.05;0.90;;;;;;;2.67;52.37;91836.44;5076602;28;20119;-75
2022/11/21 00:03:13;;;;;;;2.33;1.35;;;;;;;2.67;52.84;91840.84;5076939;28;20036;-75
2022/11/21 00:05:41;;;;;;;3.22;1.10;;;;;;;2.66;52.74;91847.06;5090692;28;20603;-74
2022/11/21 00:08:08;;;;;;;1.45;0.98;;;;;;;2.71;52.88;91841.91;5093924;28;20563;-75
2022/11/21 00:10:35;;;;;;;1.75;1.10;;;;;;;2.69;53.46;91842.13;5093363;28;20447;-75
2022/11/21 00:13:01;;;;;;;2.20;1.20;;;;;;;2.66;53.29;91842.66;5091691;28;20036;-75
2022/11/21 00:15:26;;;;;;;1.85;1.02;;;;;;;2.61;53.44;91847.81;5094540;28;20366;-75
2022/11/21 00:17:52;;;;;;;5.05;2.80;;;;;;;2.58;54.17;91853.47;5071560;28;20447;-75
2022/11/21 00:20:20;;;;;;;18.70;9.13;;;;;;;2.54;54.47;91857.56;5074066;28;20037;-75
2022/11/21 00:22:46;;;;;;;13.48;6.22;;;;;;;2.49;55.07;91852.41;5075315;28;20029;-75
2022/11/21 00:25:12;;;;;;;11.52;5.90;;;;;;;2.46;55.08;91850.31;5074239;28;20040;-74
2022/11/21 00:27:38;;;;;;;26.13;11.00;;;;;;;2.44;54.99;91847.22;5072575;28;20074;-74
2022/11/21 00:30:06;;;;;;;19.90;9.23;;;;;;;2.41;54.95;91847.69;5090828;28;20105;-74
2022/11/21 00:32:32;;;;;;;18.95;10.27;;;;;;;2.40;55.98;91846.16;5093493;28;20031;-74
2022/11/21 00:34:58;;;;;;;6.60;3.50;;;;;;;2.39;55.63;91857.53;5093046;28;20078;-75
2022/11/21 00:37:23;;;;;;;3.42;1.70;;;;;;;2.37;55.31;91849.25;5093940;28;20543;-75
2022/11/21 00:39:49;;;;;;;3.10;1.52;;;;;;;2.35;55.23;91848.72;5092034;28;20028;-75
2022/11/21 00:42:15;;;;;;;2.80;1.40;;;;;;;2.35;54.93;91859.81;5093466;28;20035;-75
2022/11/21 00:44:40;;;;;;;2.85;1.45;;;;;;;2.34;54.83;91852.31;5064414;28;20032;-75
2022/11/21 00:47:06;;;;;;;6.25;3.72;;;;;;;2.34;55.42;91841.97;5075708;28;20130;-75
2022/11/21 00:49:31;;;;;;;5.93;2.83;;;;;;;2.35;55.02;91838.38;5102501;28;20036;-75
2022/11/21 00:51:57;;;;;;;4.45;2.35;;;;;;;2.35;54.63;91839.16;5072479;28;20025;-76
2022/11/21 00:54:22;;;;;;;5.63;2.45;;;;;;;2.40;54.60;91841.75;5068670;28;20414;-75
2022/11/21 00:56:48;;;;;;;3.88;2.30;;;;;;;2.42;54.69;91838.94;5073487;28;20121;-75
2022/11/21 00:59:13;;;;;;;3.65;1.85;;;;;;;2.44;54.35;91842.03;5055377;28;20159;-75
2022/11/21 01:01:39;;;;;;;3.10;1.70;;;;;;;2.45;54.18;91838.41;5106812;28;20040;-75
2022/11/21 01:04:04;;;;;;;4.32;2.00;;;;;;;2.43;54.38;91836.09;5091968;28;20050;-75
2022/11/21 01:06:31;;;;;;;3.33;1.48;;;;;;;2.42;54.26;91839.72;5093586;28;20036;-75
2022/11/21 01:08:57;;;;;;;1.45;1.10;;;;;;;2.43;54.14;91846.44;5092308;28;20158;-75
2022/11/21 01:11:22;;;;;;;1.92;1.10;;;;;;;2.43;53.64;91856.78;5091413;28;20525;-75
2022/11/21 01:13:48;;;;;;;2.08;1.15;;;;;;;2.41;54.31;91851.09;5076566;28;20096;-75
2022/11/21 01:16:19;;;;;;;1.15;1.05;;;;;;;2.42;53.65;91847.47;5074354;28;20249;-75
2022/11/21 01:18:45;;;;;;;1.73;1.20;;;;;;;2.44;53.57;91847.22;5083633;28;20043;-75
2022/11/21 01:21:14;;;;;;;2.10;1.40;;;;;;;2.45;53.83;91843.59;5092856;28;20028;-75
2022/11/21 01:23:40;;;;;;;2.55;1.60;;;;;;;2.45;53.73;91841.00;5083193;28;20028;-75
2022/11/21 01:26:12;;;;;;;6.35;3.53;;;;;;;2.44;53.84;91834.28;5074054;28;20043;-75
2022/11/21 01:28:37;;;;;;;7.05;3.88;;;;;;;2.46;53.75;91843.34;5072856;28;20032;-75
2022/11/21 01:31:04;;;;;;;9.55;4.82;;;;;;;2.52;53.61;91845.94;5071633;28;20081;-75
2022/11/21 01:33:30;;;;;;;5.25;2.60;;;;;;;2.51;53.56;91840.00;5081930;28;20118;-75
2022/11/21 01:35:55;;;;;;;3.00;1.48;;;;;;;2.52;53.66;91833.03;5088845;28;20028;-76
2022/11/21 01:38:21;;;;;;;1.33;1.00;;;;;;;2.50;54.18;91822.97;5091497;28;20051;-75
2022/11/21 01:40:46;;;;;;;2.03;1.10;;;;;;;2.50;53.79;91823.72;5093166;28;20048;-75
2022/11/21 01:43:14;;;;;;;3.00;1.40;;;;;;;2.48;54.22;91827.59;5108457;28;20513;-75
2022/11/21 01:45:51;;;;;;;4.65;1.73;;;;;;;2.46;54.25;91819.31;5085192;28;20028;-75
2022/11/21 01:48:18;;;;;;;2.05;1.40;;;;;;;2.44;54.29;91822.16;5091988;28;20378;-75
2022/11/21 01:50:44;;;;;;;2.22;1.35;;;;;;;2.42;54.86;91818.28;5091388;28;20024;-75
2022/11/21 01:53:10;;;;;;;6.28;2.50;;;;;;;2.39;54.59;91818.78;5108266;28;20052;-75
2022/11/21 01:55:36;;;;;;;4.40;2.30;;;;;;;2.36;54.70;91814.09;5107350;28;20075;-75
2022/11/21 01:58:02;;;;;;;11.55;4.85;;;;;;;2.36;54.93;91814.09;5071800;28;20119;-75
2022/11/21 02:00:34;;;;;;;9.57;4.75;;;;;;;2.36;54.67;91819.25;5053499;28;20040;-75
2022/11/21 02:03:08;;;;;;;5.70;2.90;;;;;;;2.32;55.16;91813.03;5072072;28;20039;-75
2022/11/21 02:05:36;;;;;;;6.95;3.63;;;;;;;2.32;55.43;91818.22;5079799;28;20073;-75
2022/11/21 02:08:15;;;;;;;4.18;2.33;;;;;;;2.31;55.20;91816.66;5089094;28;20070;-75
2022/11/21 02:11:05;;;;;;;4.45;2.30;;;;;;;2.31;54.99;91822.59;5090746;28;20122;-75
2022/11/21 02:13:30;;;;;;;7.40;2.92;;;;;;;2.31;55.49;91816.66;5090523;28;20047;-75
2022/11/21 02:15:56;;;;;;;7.22;3.22;;;;;;;2.34;55.30;91819.50;5091023;28;20447;-75
2022/11/21 02:18:22;;;;;;;4.97;2.28;;;;;;;2.33;55.68;91822.38;5088191;28;20035;-75
2022/11/21 02:20:52;;;;;;;2.92;1.40;;;;;;;2.38;54.99;91822.38;5074028;28;20036;-75
2022/11/21 02:23:38;;;;;;;5.07;1.80;;;;;;;2.44;54.67;91821.38;5077513;28;20036;-75
2022/11/21 02:26:03;;;;;;;2.05;1.20;;;;;;;2.60;53.81;91822.22;5070120;28;20063;-75
2022/11/21 02:28:30;;;;;;;1.80;1.00;;;;;;;2.74;53.26;91819.94;5081774;28;20024;-75
2022/11/21 02:30:56;;;;;;;1.38;0.90;;;;;;;2.90;52.56;91808.59;5090884;28;20114;-75
2022/11/21 02:33:21;;;;;;;1.33;0.88;;;;;;;3.06;52.63;91802.44;5107635;28;20572;-75
2022/11/21 02:36:00;;;;;;;0.98;0.85;;;;;;;3.11;52.05;91797.25;5091099;28;20036;-76
2022/11/21 02:38:31;;;;;;;1.40;1.00;;;;;;;3.12;52.40;91803.97;5083177;28;20035;-75
2022/11/21 02:41:03;;;;;;;0.95;0.68;;;;;;;3.10;52.32;91793.09;5071630;28;20024;-75
2022/11/21 02:43:43;;;;;;;0.70;0.70;;;;;;;3.11;52.48;91780.97;5088031;28;20044;-75
2022/11/21 02:46:08;;;;;;;0.60;0.60;;;;;;;3.21;52.34;91773.22;5089904;28;20032;-75
2022/11/21 02:48:36;;;;;;;0.80;0.80;;;;;;;3.22;51.81;91774.78;5085620;28;20029;-75
2022/11/21 02:51:01;;;;;;;0.63;0.63;;;;;;;3.33;51.47;91770.38;5072308;28;20040;-75
2022/11/21 02:53:27;;;;;;;0.60;0.60;;;;;;;3.37;51.51;91771.41;5090336;28;20043;-75
2022/11/21 02:55:52;;;;;;;0.80;0.80;;;;;;;3.38;51.65;91775.56;5073124;28;20043;-75
2022/11/21 02:58:18;;;;;;;0.88;0.85;;;;;;;3.42;51.54;91779.16;5106752;28;20043;-75
2022/11/21 03:00:44;;;;;;;0.77;0.77;;;;;;;3.43;51.72;91785.91;5071356;28;20039;-75
2022/11/21 03:03:10;;;;;;;1.63;1.10;;;;;;;3.40;51.54;91786.44;5036685;28;20537;-74
2022/11/21 03:05:36;;;;;;;2.63;1.25;;;;;;;3.36;52.01;91782.03;5071027;28;20541;-75
2022/11/21 03:08:03;;;;;;;1.20;0.90;;;;;;;3.45;51.54;91783.84;5074140;28;20090;-74
2022/11/21 03:10:29;;;;;;;0.80;0.70;;;;;;;3.53;50.65;91780.75;5079051;28;20478;-74
2022/11/21 03:12:59;;;;;;;1.05;0.80;;;;;;;3.53;51.50;91785.91;5067431;28;20078;-74
2022/11/21 03:15:27;;;;;;;1.27;0.90;;;;;;;3.46;51.36;91782.78;5090823;28;20044;-74
2022/11/21 03:17:53;;;;;;;1.40;1.00;;;;;;;3.43;51.25;91788.50;5089606;28;20036;-74
2022/11/21 03:20:19;;;;;;;0.60;0.60;;;;;;;3.49;51.28;91784.88;5089137;28;20031;-76
2022/11/21 03:22:44;;;;;;;1.15;0.80;;;;;;;3.48;51.11;91788.47;5091096;28;20036;-75
2022/11/21 03:25:10;;;;;;;0.73;0.60;;;;;;;3.52;51.04;91789.53;5089850;28;20039;-75
2022/11/21 03:27:35;;;;;;;0.65;0.65;;;;;;;3.57;50.85;91790.56;5071325;28;20036;-75
2022/11/21 03:30:01;;;;;;;1.17;0.95;;;;;;;3.63;51.08;91786.94;5076480;28;20043;-75
2022/11/21 03:32:26;;;;;;;0.80;0.80;;;;;;;3.66;50.56;91789.00;5068924;28;20550;-75
2022/11/21 03:34:52;;;;;;;1.13;0.82;;;;;;;3.67;50.35;91775.00;5070821;28;20064;-75
2022/11/21 03:37:18;;;;;;;0.98;0.70;;;;;;;3.66;50.32;91773.47;5070594;28;20051;-75
2022/11/21 03:39:43;;;;;;;1.08;0.80;;;;;;;3.79;50.07;91777.34;5052938;28;20371;-75
2022/11/21 03:42:09;;;;;;;1.42;0.88;;;;;;;3.71;50.73;91778.63;5064737;28;20441;-75
2022/11/21 03:44:34;;;;;;;0.77;0.75;;;;;;;3.61;51.33;91778.66;5091418;28;20391;-75
2022/11/21 03:47:00;;;;;;;1.05;0.85;;;;;;;3.51;52.28;91777.63;5090665;28;20371;-75
2022/11/21 03:49:25;;;;;;;0.65;0.65;;;;;;;3.43;52.76;91772.97;5075334;28;20040;-75
2022/11/21 03:51:51;;;;;;;1.00;0.80;;;;;;;3.40;52.47;91752.78;5103126;28;20050;-75
2022/11/21 03:54:16;;;;;;;0.75;0.70;;;;;;;3.42;51.64;91749.94;5070660;28;20044;-74
2022/11/21 03:56:42;;;;;;;0.75;0.73;;;;;;;3.40;51.65;91749.41;5069374;28;20037;-74
2022/11/21 03:59:07;;;;;;;1.00;0.80;;;;;;;3.47;51.26;91748.13;5070688;28;20402;-75
2022/11/21 04:01:33;;;;;;;1.00;0.75;;;;;;;3.43;51.69;91749.69;5052600;28;20033;-75
2022/11/21 04:03:59;;;;;;;0.85;0.60;;;;;;;3.41;51.59;91751.75;5072178;28;20029;-75
2022/11/21 04:06:25;;;;;;;0.90;0.80;;;;;;;3.38;51.88;91754.06;5069291;28;20460;-75
2022/11/21 04:08:51;;;;;;;0.50;0.50;;;;;;;3.38;51.67;91762.63;5070309;28;20388;-75
2022/11/21 04:11:17;;;;;;;0.57;0.50;;;;;;;3.39;51.95;91758.22;5069167;28;20468;-75
2022/11/21 04:13:43;;;;;;;1.10;1.00;;;;;;;3.39;51.60;91748.63;5080796;28;20135;-75
2022/11/21 04:16:08;;;;;;;0.90;0.90;;;;;;;3.44;51.13;91737.50;5106462;28;20115;-75
2022/11/21 04:18:34;;;;;;;0.70;0.70;;;;;;;3.46;51.36;91727.69;5090548;28;20378;-75
2022/11/21 04:21:05;;;;;;;0.88;0.80;;;;;;;3.46;51.33;91727.69;5070957;28;20040;-75
2022/11/21 04:23:31;;;;;;;0.55;0.55;;;;;;;3.49;51.33;91727.16;5085416;28;20050;-75
2022/11/21 04:25:57;;;;;;;0.70;0.70;;;;;;;3.61;50.98;91724.31;5073998;28;20050;-75
2022/11/21 04:28:23;;;;;;;0.73;0.73;;;;;;;3.69;50.76;91726.34;5039414;28;20036;-75
2022/11/21 04:30:48;;;;;;;0.55;0.55;;;;;;;3.68;50.79;91727.38;5079834;28;20029;-75
2022/11/21 04:33:15;;;;;;;0.63;0.63;;;;;;;3.79;50.76;91715.22;5081303;28;20035;-75
2022/11/21 04:35:44;;;;;;;0.85;0.80;;;;;;;3.75;50.84;91720.91;5074921;28;20046;-75
2022/11/21 04:38:10;;;;;;;1.52;0.68;;;;;;;3.75;50.64;91720.13;5092815;28;20489;-75
2022/11/21 04:40:36;;;;;;;1.05;0.90;;;;;;;3.72;51.07;91716.25;5091048;28;20028;-75
2022/11/21 04:43:02;;;;;;;0.70;0.70;;;;;;;3.81;50.25;91719.09;5092655;28;20046;-75
2022/11/21 04:45:28;;;;;;;0.98;0.80;;;;;;;3.86;50.22;91720.88;5081939;28;20036;-75
2022/11/21 04:47:54;;;;;;;0.60;0.60;;;;;;;3.84;50.32;91718.53;5055777;28;20032;-75
2022/11/21 04:50:20;;;;;;;1.08;0.80;;;;;;;3.81;50.00;91719.09;5073342;28;20064;-75
2022/11/21 04:52:53;;;;;;;0.70;0.70;;;;;;;3.80;50.15;91709.75;5084198;28;20044;-75
2022/11/21 04:55:21;;;;;;;0.80;0.80;;;;;;;3.83;50.24;91711.81;5091077;28;20035;-74
2022/11/21 04:57:46;;;;;;;1.77;0.80;;;;;;;3.90;50.02;91711.56;5093598;28;20119;-75
2022/11/21 05:00:16;;;;;;;0.80;0.80;;;;;;;3.84;50.23;91708.19;5075676;28;20040;-75
2022/11/21 05:02:42;;;;;;;0.95;0.85;;;;;;;3.99;49.80;91711.78;5091988;28;20040;-75
2022/11/21 05:05:08;;;;;;;0.68;0.68;;;;;;;3.94;50.03;91715.94;5091172;28;20032;-75
2022/11/21 05:07:34;;;;;;;0.82;0.73;;;;;;;3.93;50.07;91716.97;5091912;28;20253;-74
2022/11/21 05:09:59;;;;;;;1.48;0.63;;;;;;;3.95;50.06;91708.94;5093494;28;20040;-74
2022/11/21 05:15:09;;;;;;;0.80;0.70;;;;;;;3.94;50.02;91713.34;5092208;28;20056;-74
2022/11/21 05:17:35;;;;;;;1.15;0.80;;;;;;;4.03;49.74;91710.19;5089688;28;20044;-74
2022/11/21 05:20:00;;;;;;;0.63;0.63;;;;;;;4.01;49.74;91704.50;5071756;28;20500;-75
2022/11/21 05:22:26;;;;;;;0.80;0.80;;;;;;;4.07;49.67;91711.22;5072816;28;20103;-75
2022/11/21 05:24:52;;;;;;;0.68;0.68;;;;;;;4.04;50.06;91715.13;5073167;28;20032;-75
2022/11/21 05:27:17;;;;;;;0.90;0.80;;;;;;;4.02;49.76;91711.25;5072870;28;20063;-75
2022/11/21 05:29:43;;;;;;;2.25;0.65;;;;;;;4.05;50.00;91708.88;5087814;28;20098;-75
2022/11/21 05:32:09;;;;;;;1.15;0.70;;;;;;;4.05;49.63;91713.31;5087756;28;20028;-75
2022/11/21 05:34:34;;;;;;;1.20;0.70;;;;;;;4.11;50.13;91707.06;5083689;28;20039;-75
2022/11/21 05:37:00;;;;;;;0.60;0.60;;;;;;;4.11;49.50;91713.03;5090753;28;20044;-74
2022/11/21 05:39:26;;;;;;;0.60;0.60;;;;;;;4.20;49.18;91707.31;5077326;28;20066;-73
2022/11/21 05:42:00;;;;;;;0.80;0.73;;;;;;;4.23;49.42;91704.94;5078367;28;20367;-72
2022/11/21 05:44:26;;;;;;;0.60;0.60;;;;;;;4.14;49.96;91711.72;5073522;28;20459;-73
2022/11/21 05:46:51;;;;;;;0.60;0.60;;;;;;;4.03;50.27;91712.78;5072830;28;20036;-75
2022/11/21 05:49:17;;;;;;;0.63;0.63;;;;;;;3.99;50.66;91714.38;5075742;28;20029;-74
2022/11/21 05:51:42;;;;;;;0.95;0.70;;;;;;;4.04;50.24;91730.66;5061123;28;20170;-75
2022/11/21 05:54:13;;;;;;;0.70;0.70;;;;;;;3.95;50.80;91730.44;5086130;28;20050;-75
2022/11/21 05:56:39;;;;;;;1.80;0.70;;;;;;;3.82;51.50;91737.97;5090791;28;20039;-75
2022/11/21 05:59:04;;;;;;;0.75;0.60;;;;;;;3.68;52.07;91729.97;5091292;28;20519;-75
2022/11/21 06:04:14;;;;;;;1.00;0.70;;;;;;;3.40;52.63;91728.72;5072534;28;20108;-74
2022/11/21 06:06:40;;;;;;;1.10;0.90;;;;;;;3.31;53.18;91726.66;5052634;28;20107;-74
2022/11/21 06:09:06;;;;;;;1.50;0.90;;;;;;;3.27;53.05;91723.03;5084918;28;20036;-74
2022/11/21 06:11:32;;;;;;;1.10;0.80;;;;;;;3.19;54.68;91725.38;5067946;28;20043;-74
2022/11/21 06:13:57;;;;;;;0.75;0.75;;;;;;;3.10;54.77;91717.34;5075847;28;20057;-74
2022/11/21 06:16:23;;;;;;;0.85;0.60;;;;;;;3.17;55.10;91725.63;5090109;28;20068;-75
2022/11/21 06:18:53;;;;;;;0.80;0.80;;;;;;;3.13;54.42;91716.84;5090124;28;20036;-74
2022/11/21 06:21:21;;;;;;;0.77;0.77;;;;;;;3.04;55.19;91716.59;5090031;28;20043;-75
2022/11/21 06:23:50;;;;;;;0.65;0.65;;;;;;;2.97;55.15;91716.03;5080890;28;20116;-74
2022/11/21 06:26:18;;;;;;;0.88;0.75;;;;;;;2.90;55.46;91715.53;5081389;28;20048;-74
2022/11/21 06:28:45;;;;;;;0.82;0.75;;;;;;;2.88;55.71;91715.00;5079589;28;20562;-74
2022/11/21 06:31:13;;;;;;;0.60;0.60;;;;;;;2.86;55.75;91709.31;5088009;28;20031;-74
2022/11/21 06:33:39;;;;;;;0.73;0.73;;;;;;;2.83;56.99;91712.41;5080699;28;20028;-74
2022/11/21 06:36:14;;;;;;;1.05;0.90;;;;;;;2.77;56.68;91718.59;5075679;28;20048;-74
2022/11/21 06:38:40;;;;;;;0.88;0.70;;;;;;;2.75;57.20;91712.91;5087977;28;20020;-74
2022/11/21 06:41:17;;;;;;;1.80;0.70;;;;;;;2.71;57.33;91718.59;5088874;28;20524;-74
2022/11/21 06:43:43;;;;;;;0.80;0.77;;;;;;;2.69;57.98;91719.91;5090034;28;20059;-74
2022/11/21 06:46:09;;;;;;;0.65;0.63;;;;;;;2.66;57.44;91731.53;5088868;28;20039;-74
2022/11/21 06:48:36;;;;;;;1.58;0.80;;;;;;;2.65;58.20;91729.97;5086579;28;20118;-74
2022/11/21 06:51:22;;;;;;;0.70;0.70;;;;;;;2.62;58.47;91727.91;5087821;28;20036;-77
2022/11/21 06:53:56;;;;;;;1.13;1.02;;;;;;;3.15;59.06;91724.31;5086807;28;20110;-77
2022/11/21 06:56:26;;;;;;;0.80;0.80;;;;;;;4.43;56.57;91714.44;5091265;28;20039;-77
2022/11/21 06:58:52;;;;;;;1.30;0.80;;;;;;;5.58;52.71;91717.56;5087278;28;20032;-76
2022/11/21 07:01:18;;;;;;;0.80;0.80;;;;;;;6.62;50.61;91712.78;5087940;28;20028;-76
2022/11/21 07:03:44;;;;;;;3.38;0.70;;;;;;;7.67;46.53;91715.91;5103352;28;20154;-75
2022/11/21 07:06:09;;;;;;;0.73;0.73;;;;;;;8.64;44.52;91712.59;5088321;28;20111;-76
2022/11/21 07:08:35;;;;;;;0.80;0.80;;;;;;;9.54;42.13;91704.88;5077612;28;20170;-75
2022/11/21 07:11:04;;;;;;;0.88;0.88;;;;;;;10.71;40.42;91702.91;5088349;28;20085;-76
2022/11/21 07:13:31;;;;;;;0.82;0.80;;;;;;;11.60;37.78;91700.78;5077634;28;20051;-76
2022/11/21 07:16:05;;;;;;;1.00;0.90;;;;;;;12.42;36.16;91708.59;5083103;28;20042;-76
2022/11/21 07:18:31;;;;;;;2.08;0.80;;;;;;;12.95;34.12;91704.59;5081389;28;20115;-77
2022/11/21 07:20:58;;;;;;;0.98;0.88;;;;;;;13.33;33.43;91694.00;5082808;28;20052;-77
2022/11/21 07:23:24;;;;;;;0.75;0.75;;;;;;;14.25;32.63;91688.78;5087733;28;20074;-76
2022/11/21 07:25:49;;;;;;;1.27;1.10;;;;;;;14.99;31.14;91684.28;5070564;28;20067;-76
2022/11/21 07:28:15;;;;;;;1.80;1.10;;;;;;;15.34;31.17;91681.91;5087270;28;20051;-76
2022/11/21 07:30:40;;;;;;;2.13;1.20;;;;;;;15.00;32.96;91691.09;5083220;28;20124;-76
2022/11/21 07:33:07;;;;;;;1.65;1.10;;;;;;;15.09;30.32;91683.06;5089294;28;20032;-76
2022/11/21 07:35:33;;;;;;;1.13;1.00;;;;;;;14.99;30.71;91687.69;5088587;28;20066;-77
2022/11/21 07:38:00;;;;;;;1.60;0.98;;;;;;;14.83;30.89;91683.44;5078485;28;20075;-76
2022/11/21 07:40:26;;;;;;;1.90;1.08;;;;;;;14.52;31.51;91684.72;5086252;28;20033;-76
2022/11/21 07:42:51;;;;;;;2.13;1.15;;;;;;;15.49;31.83;91690.19;5076586;28;20031;-76
2022/11/21 07:45:17;;;;;;;1.73;1.10;;;;;;;16.12;29.84;91689.59;5066747;28;20078;-76
2022/11/21 07:47:43;;;;;;;3.38;1.00;;;;;;;15.94;30.53;91691.78;5070877;28;20035;-76
2022/11/21 07:50:10;;;;;;;4.18;1.15;;;;;;;16.31;29.85;91691.59;5038054;28;20033;-76
2022/11/21 07:52:37;;;;;;;3.10;1.00;;;;;;;17.68;27.40;91693.47;5089075;28;20122;-76
2022/11/21 07:55:03;;;;;;;2.17;1.10;;;;;;;17.31;27.32;91693.09;5069756;28;20028;-77
2022/11/21 07:57:29;;;;;;;1.02;0.85;;;;;;;17.74;27.28;91693.94;5072087;28;20424;-77
2022/11/21 07:59:55;;;;;;;1.52;1.05;;;;;;;19.05;26.03;91684.06;5073691;28;20035;-77
2022/11/21 08:02:26;;;;;;;1.58;1.00;;;;;;;19.08;25.39;91690.53;5090363;28;20489;-77
2022/11/21 08:04:52;;;;;;;2.75;1.30;;;;;;;19.11;26.94;91690.56;5095827;28;20389;-80
2022/11/21 08:07:20;;;;;;;2.30;1.10;;;;;;;18.16;26.11;91688.69;5095942;28;20039;-77
2022/11/21 08:09:46;;;;;;;1.33;1.00;;;;;;;18.62;24.86;91687.91;5093969;28;20039;-76
2022/11/21 08:12:13;;;;;;;1.77;1.10;;;;;;;18.64;25.52;91693.63;5093519;28;20029;-77
2022/11/21 08:14:39;;;;;;;1.63;1.02;;;;;;;19.18;24.30;91697.09;5097023;28;20485;-80
2022/11/21 08:17:05;;;;;;;1.40;0.90;;;;;;;19.66;23.79;91698.13;5096507;28;20040;-78
2022/11/21 08:19:31;;;;;;;1.63;1.00;;;;;;;20.03;22.86;91688.69;5093719;28;20039;-77
2022/11/21 08:21:57;;;;;;;1.50;1.00;;;;;;;20.83;22.13;91683.75;5075546;28;20024;-78
2022/11/21 08:24:23;;;;;;;1.10;0.70;;;;;;;21.08;22.21;91680.50;5075821;28;20037;-77
2022/11/21 08:26:48;;;;;;;2.00;1.10;;;;;;;20.27;24.00;91674.91;5055072;28;20122;-77
2022/11/21 08:29:14;;;;;;;0.82;0.70;;;;;;;18.13;25.22;91678.81;5094346;28;20095;-78
2022/11/21 08:31:40;;;;;;;1.83;1.00;;;;;;;18.79;24.80;91686.72;5092053;28;20124;-77
2022/11/21 08:34:07;;;;;;;0.93;0.73;;;;;;;19.21;25.42;91681.25;5074749;28;20063;-78
2022/11/21 08:36:32;;;;;;;3.20;0.80;;;;;;;18.33;25.29;91678.75;5074476;28;20033;-78
2022/11/21 08:38:58;;;;;;;1.55;0.80;;;;;;;17.87;25.13;91682.13;5082616;28;20122;-79
2022/11/21 08:44:08;;;;;;;0.88;0.70;;;;;;;16.62;27.54;91681.00;5077887;28;20055;-78
2022/11/21 08:46:36;;;;;;;1.85;0.80;;;;;;;15.97;27.65;91673.41;5075258;28;20033;-78
2022/11/21 08:49:08;;;;;;;0.95;0.65;;;;;;;15.69;28.58;91670.75;5072661;28;20443;-75
2022/11/21 08:51:34;;;;;;;1.15;0.70;;;;;;;15.76;29.03;91668.38;5074103;28;20097;-76
2022/11/21 08:54:00;;;;;;;0.88;0.63;;;;;;;15.31;30.01;91668.59;5087712;28;20052;-76
2022/11/21 08:56:25;;;;;;;1.38;0.63;;;;;;;15.09;30.14;91672.53;5086597;28;20032;-76
2022/11/21 08:58:51;;;;;;;0.52;0.52;;;;;;;15.14;29.37;91669.66;5089313;28;20050;-77
2022/11/21 09:01:17;;;;;;;1.30;0.70;;;;;;;15.10;29.88;91666.91;5089279;28;20027;-77
2022/11/21 09:03:43;;;;;;;0.95;0.70;;;;;;;15.26;29.06;91660.94;5093816;28;20058;-76
2022/11/21 09:06:09;;;;;;;1.30;0.80;;;;;;;15.29;30.44;91668.16;5093588;28;20056;-78
2022/11/21 09:08:34;;;;;;;2.30;1.25;;;;;;;14.44;31.70;91661.94;5076940;28;20028;-78
2022/11/21 09:11:08;;;;;;;0.95;0.77;;;;;;;14.16;31.62;91665.97;5092830;28;20120;-78
2022/11/21 09:13:35;;;;;;;1.67;1.20;;;;;;;14.22;33.04;91663.13;5073758;28;20044;-78
2022/11/21 09:18:47;;;;;;;2.65;1.33;;;;;;;12.85;34.82;91670.81;5074052;28;20032;-78
2022/11/21 09:21:18;;;;;;;2.30;1.50;;;;;;;11.99;35.66;91673.56;5074474;28;20043;-78
2022/11/21 09:23:44;;;;;;;2.38;1.40;;;;;;;11.43;37.51;91678.75;5074180;28;20040;-79
2022/11/21 09:26:10;;;;;;;4.57;1.40;;;;;;;10.90;38.30;91679.06;5085578;28;20043;-78
2022/11/21 09:28:36;;;;;;;2.13;1.20;;;;;;;10.86;38.63;91676.28;5076929;28;20046;-81
2022/11/21 09:31:03;;;;;;;3.03;1.40;;;;;;;11.01;39.14;91675.84;5090208;28;20036;-77
2022/11/21 09:33:29;;;;;;;2.50;1.23;;;;;;;11.35;37.79;91673.50;5108797;28;20047;-77
2022/11/21 09:35:58;;;;;;;2.25;1.40;;;;;;;11.39;37.64;91669.19;5092922;28;20410;-78
2022/11/21 09:38:25;;;;;;;2.83;1.30;;;;;;;11.44;38.56;91675.06;5094619;28;20032;-78
2022/11/21 09:40:53;;;;;;;2.13;1.30;;;;;;;11.07;39.63;91675.69;5093850;28;20027;-77
2022/11/21 09:43:35;;;;;;;2.72;1.33;;;;;;;10.47;41.16;91674.53;5089697;28;20035;-78
2022/11/21 09:46:15;;;;;;;2.75;1.45;;;;;;;10.60;39.85;91674.44;5072849;28;20032;-78
2022/11/21 09:48:57;;;;;;;2.60;1.27;;;;;;;10.69;39.89;91679.66;5105713;27;20085;-76
2022/11/21 09:51:24;;;;;;;2.85;1.42;;;;;;;11.08;39.01;91666.75;5080091;28;20029;-76
2022/11/21 09:54:22;;;;;;;2.60;1.30;;;;;;;11.39;39.52;91664.75;5072387;28;20049;-76
2022/11/21 09:56:48;;;;;;;2.55;1.30;;;;;;;11.77;37.77;91664.03;5085055;28;20040;-77
2022/11/21 09:59:22;;;;;;;2.88;1.40;;;;;;;11.47;40.24;91663.19;5091866;28;20032;-77
2022/11/21 10:01:48;;;;;;;2.50;1.50;;;;;;;11.10;42.05;91661.97;5091133;28;20067;-76
2022/11/21 10:04:13;;;;;;;3.42;1.48;;;;;;;10.88;41.82;91650.59;5072899;28;20060;-78
2022/11/21 10:07:03;;;;;;;4.22;1.58;;;;;;;11.01;42.23;91651.50;5091012;28;20036;-78
2022/11/21 10:09:35;;;;;;;3.63;1.80;;;;;;;10.93;43.70;91647.03;5083473;28;20039;-77
2022/11/21 10:12:38;;;;;;;3.72;1.70;;;;;;;10.65;44.27;91636.06;5089853;28;20423;-76
2022/11/21 10:15:25;;;;;;;3.90;1.27;;;;;;;10.22;44.35;91634.88;5083000;28;20027;-76
2022/11/21 10:18:18;;;;;;;3.10;1.58;;;;;;;9.30;46.57;91621.59;5087664;28;20039;-76
2022/11/21 10:21:13;;;;;;;4.00;1.70;;;;;;;9.42;46.91;91623.66;5085874;28;20036;-76
2022/11/21 10:24:13;;;;;;;3.15;1.70;;;;;;;9.60;46.68;91625.28;5081663;28;20036;-76
2022/11/21 10:26:52;;;;;;;2.85;1.45;;;;;;;9.59;46.00;91618.50;5068496;28;20082;-76
2022/11/21 10:29:44;;;;;;;3.25;1.70;;;;;;;10.10;43.79;91616.41;5090521;28;20058;-76
2022/11/21 10:32:12;;;;;;;3.17;1.60;;;;;;;10.68;44.89;91619.78;5081813;28;20040;-76
2022/11/21 10:34:38;;;;;;;3.47;1.80;;;;;;;10.67;42.08;91612.97;5082704;28;20032;-76
2022/11/21 10:37:34;;;;;;;4.03;1.48;;;;;;;10.72;40.77;91611.00;5073205;28;20493;-76
2022/11/21 10:40:27;;;;;;;3.95;1.63;;;;;;;10.85;42.05;91609.28;5113983;27;20135;-76
2022/11/21 10:42:57;;;;;;;5.10;1.85;;;;;;;11.09;41.03;91608.06;5084572;28;20047;-76
2022/11/21 10:45:23;;;;;;;2.33;1.00;;;;;;;11.06;39.41;91603.44;5072824;28;20071;-76
2022/11/21 10:47:51;;;;;;;2.75;1.42;;;;;;;11.25;39.84;91603.88;5077094;28;20075;-76
2022/11/21 10:50:28;;;;;;;1.90;1.13;;;;;;;11.23;38.20;91606.03;5090158;28;20036;-76
2022/11/21 10:56:11;;;;;;;1.90;1.30;;;;;;;11.46;37.71;91594.28;5067545;28;20039;-76
2022/11/21 10:58:46;;;;;;;1.75;1.10;;;;;;;11.57;38.49;91607.03;5084252;28;20043;-76
2022/11/21 11:01:24;;;;;;;1.75;1.00;;;;;;;11.64;36.43;91608.09;5081730;28;20470;-76
2022/11/21 11:04:05;;;;;;;1.77;0.98;;;;;;;11.77;36.35;91601.09;5098341;28;20477;-76
2022/11/21 11:06:32;;;;;;;1.00;0.90;;;;;;;12.02;36.70;91604.75;5083357;28;20028;-76
2022/11/21 11:08:58;;;;;;;1.10;0.88;;;;;;;11.73;35.06;91604.66;5086602;28;20496;-76
2022/11/21 11:11:26;;;;;;;1.23;0.95;;;;;;;11.72;34.92;91611.78;5070071;28;20056;-77
2022/11/21 11:14:05;;;;;;;4.25;1.60;;;;;;;11.79;41.17;91614.66;5079842;28;20059;-77
2022/11/21 11:16:33;;;;;;;2.60;1.50;;;;;;;11.61;39.53;91602.69;5053390;28;20410;-76
2022/11/21 11:19:04;;;;;;;1.52;1.00;;;;;;;11.73;38.64;91609.91;5070763;28;20024;-77
2022/11/21 11:21:43;;;;;;;2.00;1.20;;;;;;;11.87;35.77;91608.66;5069697;28;20036;-77
2022/11/21 11:24:08;;;;;;;2.35;1.30;;;;;;;12.06;38.44;91603.00;5059607;28;20042;-76
2022/11/21 11:26:49;;;;;;;2.42;1.25;;;;;;;12.20;36.56;91597.53;5089530;28;20422;-76
2022/11/21 11:29:20;;;;;;;2.75;1.50;;;;;;;12.06;36.85;91592.53;5083622;28;20320;-76
2022/11/21 11:31:57;;;;;;;1.90;1.20;;;;;;;12.18;37.21;91584.00;5090776;28;20028;-77
2022/11/21 11:34:39;;;;;;;2.85;1.48;;;;;;;12.49;37.14;91583.63;5078582;28;20476;-78
2022/11/21 11:37:19;;;;;;;2.35;1.42;;;;;;;12.62;35.50;91571.34;5095896;28;20374;-76
2022/11/21 11:40:14;;;;;;;3.00;1.50;;;;;;;12.45;36.74;91571.47;5092057;28;20119;-76
2022/11/21 11:48:49;;;;;;;4.53;1.60;;;;;;;12.31;38.55;91537.59;5109747;28;20056;-76
2022/11/21 11:51:26;;;;;;;1.42;1.00;;;;;;;12.24;36.87;91530.22;5087552;28;20035;-76
2022/11/21 11:54:02;;;;;;;2.92;1.10;;;;;;;11.78;36.87;91524.00;5077567;28;20048;-76
2022/11/21 11:56:35;;;;;;;1.13;0.98;;;;;;;11.80;35.75;91510.59;5094043;28;20303;-76
2022/11/21 11:59:23;;;;;;;4.03;2.00;;;;;;;11.52;40.50;91505.00;5094770;28;20123;-76
2022/11/21 12:02:00;;;;;;;4.85;1.80;;;;;;;11.06;42.12;91503.94;5084564;28;20040;-76
2022/11/21 12:04:31;;;;;;;2.55;1.58;;;;;;;11.02;44.36;91504.53;5093877;28;20542;-76
2022/11/21 12:07:15;;;;;;;3.50;1.75;;;;;;;10.91;43.92;91497.34;5087100;28;20036;-77